Time;durP1;ratioP1;P1;durP2;ratioP2;P2;SDS_P1;SDS_P2;PMS_P1;PMS_P2;Temp;Humidity;BMP_temperature;BMP_pressure;BME280_temperature;BME280_humidity;BME280_pressure;Samples;Min_cycle;Max_cycle;Signal;HPM_P1;HPM_P2
2023/02/19 00:02:27;;;;;;;5.20;4.20;;;;;;;1.66;100.00;99027.69;446600;1249;143273;-67
2023/02/19 00:12:33;;;;;;;7.70;5.20;;;;;;;1.66;100.00;99026.99;451367;1249;141363;-67
2023/02/19 00:22:39;;;;;;;6.20;3.90;;;;;;;1.66;100.00;99020.66;450924;1248;143948;-68
2023/02/19 00:32:50;;;;;;;5.20;4.00;;;;;;;1.62;100.00;99018.50;446853;1249;153022;-67
2023/02/19 00:42:56;;;;;;;7.20;4.80;;;;;;;1.66;100.00;99030.80;450550;1249;142793;-67
2023/02/19 00:53:01;;;;;;;5.50;4.70;;;;;;;1.69;100.00;99025.69;451243;1249;143114;-67
2023/02/19 01:03:07;;;;;;;7.60;5.60;;;;;;;1.67;100.00;99013.00;443312;1249;141581;-68
2023/02/19 01:13:13;;;;;;;9.00;6.60;;;;;;;1.68;100.00;98996.91;449669;1249;141847;-68
2023/02/19 01:23:19;;;;;;;8.80;5.80;;;;;;;1.68;100.00;99002.63;449256;1249;142261;-67
2023/02/19 01:33:25;;;;;;;7.40;5.40;;;;;;;1.65;100.00;99012.20;444192;1248;143505;-68
2023/02/19 01:43:31;;;;;;;8.50;5.60;;;;;;;1.67;100.00;99002.30;446111;1248;142181;-67
2023/02/19 01:53:41;;;;;;;6.00;5.40;;;;;;;1.66;100.00;99003.21;438835;1247;142149;-66
2023/02/19 02:03:49;;;;;;;5.70;4.90;;;;;;;1.64;100.00;99001.73;439874;1249;142513;-66
2023/02/19 02:13:56;;;;;;;5.20;4.60;;;;;;;1.59;100.00;98996.89;437164;1249;142669;-66
2023/02/19 02:24:12;;;;;;;5.30;4.30;;;;;;;1.55;100.00;98985.50;440794;1249;141609;-66
2023/02/19 02:34:23;;;;;;;6.30;4.70;;;;;;;1.53;100.00;98985.88;436146;1248;141952;-66
2023/02/19 02:44:37;;;;;;;6.70;5.20;;;;;;;1.50;100.00;98989.46;434724;1248;141289;-66
2023/02/19 03:26:05;;;;;;;8.00;6.70;;;;;;;1.34;100.00;98945.36;435969;1252;141082;-66
2023/02/19 03:36:14;;;;;;;;;;;;;;;1.23;100.00;98937.83;443956;1248;143645;-66
2023/02/19 03:46:26;;;;;;;7.60;5.70;;;;;;;1.20;100.00;98930.37;435570;1251;128386;-66
2023/02/19 03:56:39;;;;;;;8.00;6.60;;;;;;;1.18;100.00;98926.61;434308;1250;142303;-66
2023/02/19 04:06:52;;;;;;;8.10;5.80;;;;;;;1.23;100.00;98930.95;437996;1247;142457;-65
2023/02/19 04:17:03;;;;;;;8.40;6.60;;;;;;;1.28;100.00;98931.61;436687;1251;141597;-66
2023/02/19 04:27:10;;;;;;;7.70;6.70;;;;;;;1.26;100.00;98928.73;436639;1249;143150;-65
2023/02/19 04:37:16;;;;;;;7.70;6.40;;;;;;;1.24;100.00;98921.24;437931;1249;142893;-66
2023/02/19 04:47:22;;;;;;;8.10;6.50;;;;;;;1.21;100.00;98907.03;434699;1252;142716;-66
2023/02/19 04:57:28;;;;;;;10.10;7.60;;;;;;;1.13;100.00;98896.80;435294;1249;143303;-66
2023/02/19 05:07:34;;;;;;;8.20;7.30;;;;;;;1.12;100.00;98876.33;436074;1249;142071;-66
2023/02/19 05:17:39;;;;;;;14.60;9.10;;;;;;;1.12;100.00;98868.57;434373;1250;141827;-66
2023/02/19 05:27:45;;;;;;;10.80;8.60;;;;;;;1.09;100.00;98873.70;436740;1249;142516;-67
2023/02/19 05:37:51;;;;;;;11.30;7.50;;;;;;;1.10;100.00;98891.39;438663;1249;142508;-67
2023/02/19 05:47:57;;;;;;;15.30;8.40;;;;;;;1.18;100.00;98906.45;434982;1250;143746;-66
2023/02/19 05:58:02;;;;;;;8.60;6.80;;;;;;;1.25;100.00;98921.39;433455;1252;142586;-67
2023/02/19 06:08:09;;;;;;;11.60;7.50;;;;;;;1.27;100.00;98923.02;437355;1249;141700;-66
2023/02/19 06:18:15;;;;;;;10.60;7.80;;;;;;;1.31;100.00;98906.52;437529;1252;143035;-65
2023/02/19 06:28:20;;;;;;;10.00;7.30;;;;;;;1.32;100.00;98906.45;449438;1249;142799;-67
2023/02/19 06:38:26;;;;;;;12.20;8.00;;;;;;;1.38;100.00;98922.61;450803;1249;142584;-67
2023/02/19 06:48:33;;;;;;;15.00;10.30;;;;;;;1.49;100.00;98922.55;450778;1250;142950;-67
2023/02/19 06:58:39;;;;;;;13.20;8.90;;;;;;;1.59;100.00;98911.67;445043;1249;209081;-66
2023/02/19 07:08:45;;;;;;;12.00;8.70;;;;;;;1.68;100.00;98919.80;443633;1249;142345;-66
2023/02/19 07:18:51;;;;;;;13.30;6.90;;;;;;;1.71;100.00;98925.71;450346;1249;143565;-67
2023/02/19 07:28:57;;;;;;;10.40;6.90;;;;;;;1.83;100.00;98928.19;438169;1250;142301;-65
2023/02/19 07:39:03;;;;;;;8.90;6.40;;;;;;;1.99;100.00;98926.55;437211;1251;142338;-66
2023/02/19 07:49:09;;;;;;;10.70;7.90;;;;;;;2.22;100.00;98938.24;437800;1249;142700;-65
2023/02/19 07:59:18;;;;;;;8.40;5.80;;;;;;;2.32;100.00;98934.05;441468;1248;142054;-66
2023/02/19 08:09:23;;;;;;;7.50;6.30;;;;;;;2.26;100.00;98943.10;450670;1249;142704;-66
2023/02/19 08:19:29;;;;;;;8.20;5.50;;;;;;;2.43;100.00;98944.98;450202;1248;142640;-68
2023/02/19 08:29:35;;;;;;;8.80;6.10;;;;;;;2.82;100.00;98944.95;451065;1249;142630;-65
2023/02/19 08:39:40;;;;;;;6.70;5.20;;;;;;;3.03;100.00;98955.63;450294;1248;141552;-66
2023/02/19 08:49:46;;;;;;;8.70;6.00;;;;;;;2.97;99.35;98955.20;443816;1249;141707;-67
2023/02/19 08:59:52;;;;;;;9.00;5.90;;;;;;;2.95;99.37;98952.55;447822;1249;143826;-65
2023/02/19 09:09:57;;;;;;;10.00;6.10;;;;;;;3.18;99.00;98943.39;450076;1249;143251;-65
2023/02/19 09:20:04;;;;;;;11.90;6.20;;;;;;;3.40;98.17;98947.45;450885;1249;143104;-66
2023/02/19 09:30:10;;;;;;;8.00;5.50;;;;;;;3.33;97.45;98968.88;450875;1249;142625;-66
2023/02/19 09:40:20;;;;;;;5.90;5.10;;;;;;;2.99;96.19;98979.70;446806;1249;142337;-67
2023/02/19 09:50:32;;;;;;;4.70;3.90;;;;;;;2.83;95.49;98988.48;450850;1250;142115;-67
2023/02/19 10:00:39;;;;;;;10.40;4.90;;;;;;;3.36;95.41;98999.20;443585;1249;143190;-66
2023/02/19 10:10:45;;;;;;;5.20;3.80;;;;;;;3.88;93.65;99001.92;433907;1254;142597;-67
2023/02/19 10:20:52;;;;;;;5.90;3.40;;;;;;;4.01;91.36;99013.99;450582;1250;142345;-67
2023/02/19 10:31:00;;;;;;;7.50;3.70;;;;;;;4.33;90.32;99015.96;449812;1250;141620;-67
2023/02/19 10:41:08;;;;;;;4.20;3.10;;;;;;;4.61;88.08;99032.13;447708;1249;144210;-67
2023/02/19 10:51:20;;;;;;;3.70;2.50;;;;;;;4.43;86.47;99045.98;450596;1250;140782;-66
2023/02/19 11:01:26;;;;;;;4.20;2.50;;;;;;;4.38;85.91;99057.14;449476;1249;142462;-66
2023/02/19 11:11:37;;;;;;;4.30;2.70;;;;;;;4.34;84.14;99060.64;450660;1249;144200;-66
2023/02/19 11:21:43;;;;;;;5.00;2.60;;;;;;;4.19;82.31;99068.25;449863;1249;141338;-67
2023/02/19 11:31:50;;;;;;;6.50;2.50;;;;;;;4.16;82.98;99074.42;444218;1249;142594;-67
2023/02/19 11:42:13;;;;;;;5.20;2.30;;;;;;;3.82;82.06;99082.35;440011;1253;141685;-65
2023/02/19 11:52:32;;;;;;;4.40;2.00;;;;;;;3.81;82.42;99085.71;444549;1249;142444;-65
2023/02/19 12:03:09;;;;;;;5.40;2.60;;;;;;;4.05;81.57;99083.27;450332;1250;142300;-67
2023/02/19 12:13:23;;;;;;;6.00;2.40;;;;;;;3.80;80.48;99098.73;449784;1249;143641;-66
2023/02/19 12:23:44;;;;;;;6.10;2.70;;;;;;;3.74;80.40;99110.73;450601;1250;143567;-65
2023/02/19 12:34:05;;;;;;;6.00;2.10;;;;;;;4.07;79.03;99118.88;439173;1253;145453;-67
2023/02/19 12:44:17;;;;;;;4.40;1.60;;;;;;;4.25;77.69;99134.35;449923;1251;141543;-65
2023/02/19 12:54:29;;;;;;;6.40;1.80;;;;;;;4.58;76.66;99147.55;450373;1251;142323;-67
2023/02/19 13:04:42;;;;;;;5.60;2.10;;;;;;;4.51;76.02;99151.02;449655;1250;141779;-68
2023/02/19 13:14:54;;;;;;;6.20;1.70;;;;;;;4.60;74.38;99155.10;450678;1249;141930;-69
2023/02/19 13:25:02;;;;;;;5.80;1.90;;;;;;;4.59;73.60;99164.36;440591;1252;141809;-68
2023/02/19 13:35:24;;;;;;;5.10;1.60;;;;;;;4.45;73.36;99172.59;451165;1251;141312;-67
2023/02/19 13:45:36;;;;;;;4.00;1.60;;;;;;;3.99;73.85;99195.77;436847;1253;141895;-67
2023/02/19 13:55:53;;;;;;;2.30;1.60;;;;;;;3.97;73.94;99209.69;435268;1252;141888;-69
2023/02/19 14:06:04;;;;;;;4.00;2.20;;;;;;;4.02;74.51;99218.85;442788;1253;146615;-69
2023/02/19 14:16:30;;;;;;;5.20;1.60;;;;;;;3.81;73.73;99230.27;449884;1251;140731;-69
2023/02/19 14:26:36;;;;;;;5.50;1.40;;;;;;;3.55;73.83;99241.05;446215;1251;141178;-69
2023/02/19 14:36:47;;;;;;;4.20;1.50;;;;;;;3.57;72.89;99249.27;439930;1250;162629;-66
2023/02/19 14:47:00;;;;;;;3.70;0.90;;;;;;;3.55;71.79;99260.08;441117;1251;141375;-66
2023/02/19 14:57:12;;;;;;;5.70;1.30;;;;;;;3.30;71.16;99266.25;437338;1250;142358;-66
2023/02/19 15:07:23;;;;;;;5.70;1.70;;;;;;;3.19;72.86;99276.02;444649;1251;142194;-67
2023/02/19 15:17:31;;;;;;;4.20;1.90;;;;;;;3.22;73.38;99277.09;451184;1250;167602;-67
2023/02/19 15:27:37;;;;;;;3.50;1.80;;;;;;;3.12;73.40;99293.92;450830;1248;141716;-67
2023/02/19 15:37:43;;;;;;;5.80;2.20;;;;;;;3.04;73.84;99310.30;451160;1249;142254;-67
2023/02/19 15:47:53;;;;;;;2.70;1.60;;;;;;;2.98;73.74;99328.85;451166;1251;141837;-67
2023/02/19 15:58:09;;;;;;;6.90;2.20;;;;;;;2.66;74.20;99345.04;450419;1249;143109;-66
2023/02/19 16:08:28;;;;;;;6.10;1.80;;;;;;;2.49;75.17;99359.27;451212;1249;142186;-66
2023/02/19 16:18:35;;;;;;;4.10;2.10;;;;;;;2.46;75.65;99380.45;451095;1250;142319;-67
2023/02/19 16:28:42;;;;;;;5.40;2.00;;;;;;;2.36;75.97;99397.71;435438;1251;209464;-66
2023/02/19 16:39:12;;;;;;;4.50;2.80;;;;;;;2.02;76.34;99416.08;451228;1249;141303;-66
2023/02/19 16:49:19;;;;;;;5.50;2.90;;;;;;;1.72;76.88;99421.65;443023;1249;142723;-67
2023/02/19 16:59:24;;;;;;;7.00;3.20;;;;;;;1.39;77.66;99436.08;451220;1248;141434;-66
2023/02/19 17:09:30;;;;;;;5.90;3.00;;;;;;;1.32;78.40;99452.30;451053;1249;141944;-67
2023/02/19 17:19:38;;;;;;;9.00;3.80;;;;;;;1.38;78.73;99470.77;450321;1249;211811;-67
2023/02/19 17:29:43;;;;;;;4.00;2.90;;;;;;;1.26;78.64;99484.19;447494;1249;141464;-67
2023/02/19 17:39:50;;;;;;;6.40;2.90;;;;;;;0.94;78.81;99492.79;444143;1249;142556;-67
2023/02/19 17:49:56;;;;;;;5.90;2.00;;;;;;;0.64;79.07;99511.65;451327;1249;142237;-67
2023/02/19 18:00:03;;;;;;;6.10;2.20;;;;;;;0.44;79.51;99549.82;451234;1249;141815;-67
2023/02/19 18:10:08;;;;;;;;;;;;;;;0.28;79.90;99564.15;450464;1247;141725;-67
2023/02/19 18:20:16;;;;;;;6.80;3.20;;;;;;;0.08;80.47;99558.04;434503;1250;128358;-66
2023/02/19 18:30:23;;;;;;;5.50;3.00;;;;;;;-0.14;81.25;99564.85;445300;1247;141654;-68
2023/02/19 18:40:29;;;;;;;8.70;3.30;;;;;;;-0.37;81.55;99570.64;450098;1249;141699;-67
2023/02/19 18:50:35;;;;;;;8.10;3.30;;;;;;;-0.53;82.44;99593.30;451138;1249;141537;-68
2023/02/19 19:00:40;;;;;;;9.40;3.10;;;;;;;-0.55;82.47;99606.40;450294;1248;142324;-68
2023/02/19 19:10:46;;;;;;;9.70;4.00;;;;;;;-0.64;82.73;99625.13;451244;1249;142865;-68
2023/02/19 19:20:55;;;;;;;10.30;4.10;;;;;;;-0.77;82.84;99634.80;451255;1249;142753;-68
2023/02/19 19:31:01;;;;;;;6.50;4.70;;;;;;;-0.87;83.61;99650.44;450415;1249;143727;-68
2023/02/19 19:41:06;;;;;;;;;;;;;;;-1.00;84.02;99664.04;446651;1248;143136;-68
2023/02/19 19:51:12;;;;;;;8.10;3.40;;;;;;;-1.09;84.10;99661.95;444204;1249;129315;-68
2023/02/19 20:01:19;;;;;;;11.50;5.70;;;;;;;-1.27;84.42;99668.38;449813;1248;142496;-68
2023/02/19 20:11:26;;;;;;;9.50;4.50;;;;;;;-1.38;84.93;99675.91;450621;1249;142405;-67
2023/02/19 20:21:32;;;;;;;6.70;4.80;;;;;;;-1.45;85.45;99683.05;435517;1252;143769;-67
2023/02/19 20:31:38;;;;;;;5.30;3.40;;;;;;;-1.52;85.58;99688.46;433071;1254;206848;-68
2023/02/19 20:41:47;;;;;;;6.30;3.70;;;;;;;-1.60;85.05;99702.47;442190;1252;145841;-69
2023/02/19 20:51:56;;;;;;;5.80;2.90;;;;;;;-1.60;84.92;99706.95;449497;1249;142345;-68
2023/02/19 21:02:03;;;;;;;9.90;2.80;;;;;;;-1.66;84.68;99719.20;450159;1248;143328;-69
2023/02/19 21:12:07;;;;;;;;;;;;;;;-1.73;84.65;99733.69;446341;1249;143532;-68
2023/02/19 21:22:13;;;;;;;10.60;4.50;;;;;;;-1.81;84.82;99734.82;450092;1249;127679;-68
2023/02/19 21:32:19;;;;;;;4.10;3.00;;;;;;;-1.73;84.79;99748.98;451053;1249;143305;-68
2023/02/19 21:42:25;;;;;;;7.00;3.10;;;;;;;-1.78;84.64;99754.52;450977;1249;142051;-67
2023/02/19 21:52:31;;;;;;;4.90;2.00;;;;;;;-1.89;85.10;99766.64;449988;1248;142591;-68
2023/02/19 22:02:37;;;;;;;8.30;4.60;;;;;;;-2.04;85.63;99772.28;451015;1249;142889;-67
2023/02/19 22:12:43;;;;;;;8.90;4.10;;;;;;;-2.15;85.97;99786.45;450340;1249;143029;-68
2023/02/19 22:22:49;;;;;;;8.80;5.50;;;;;;;-2.24;86.15;99776.75;450595;1249;141891;-67
2023/02/19 22:32:53;;;;;;;;;;;;;;;-2.23;86.59;99768.49;444961;1249;142083;-66
2023/02/19 22:42:59;;;;;;;13.50;6.10;;;;;;;-2.15;87.27;99792.11;449425;1249;128671;-67
2023/02/19 22:53:05;;;;;;;8.90;5.10;;;;;;;-2.01;87.28;99804.16;437650;1249;142524;-65
2023/02/19 23:03:11;;;;;;;7.00;4.70;;;;;;;-1.88;87.49;99809.38;441720;1249;141891;-66
2023/02/19 23:13:17;;;;;;;10.40;4.90;;;;;;;-1.69;87.29;99812.77;450251;1249;141806;-65
2023/02/19 23:23:23;;;;;;;10.00;4.70;;;;;;;-1.50;87.03;99813.96;450881;1249;142811;-66
2023/02/19 23:33:29;;;;;;;8.50;4.60;;;;;;;-1.38;87.18;99803.02;434535;1252;196670;-65
2023/02/19 23:43:34;;;;;;;7.50;4.70;;;;;;;-1.27;87.25;99789.65;450140;1249;142847;-65
2023/02/19 23:53:40;;;;;;;9.90;5.30;;;;;;;-1.13;87.29;99787.95;450735;1249;143621;-66
